Flight Track Log - Related Links

Times and Time Zones

All times are in EST time to prevent confusion due to time zone crossing. See the CAL5898 flight status page for this flight to view local times or setup timezone preferences in your user account.

Time Position Orientation Groundspeed Altitude Reporting Facility
EST Latitude Longitude Course Direction KTS MPH feet Rate Location/Type
Fri 03:49:00 PM 30.8058 121.7595 185° South  Level Estimated
Fri 03:50:00 PM 30.6935 121.7486 185° South  Level Estimated
Fri 03:51:00 PM 30.5812 121.7377 185° South  Level Estimated
Fri 03:52:00 PM 30.4688 121.7269 185° South  Level Estimated
Fri 03:53:00 PM 30.3565 121.7161 185° South  Level Estimated
Fri 03:54:00 PM 30.2442 121.7053 185° South  Level Estimated
Fri 03:55:00 PM 30.1318 121.6945 185° South  Level Estimated
Fri 03:56:00 PM 30.0195 121.6838 185° South  Level Estimated
Fri 03:57:00 PM 29.9072 121.6730 185° South  Level Estimated
Fri 03:58:00 PM 29.7948 121.6623 185° South  Level Estimated
Fri 03:59:00 PM 29.6825 121.6516 185° South  Level Estimated
Fri 04:00:00 PM 29.5702 121.6410 185° South  Level Estimated
Fri 04:01:00 PM 29.4578 121.6304 185° South  Level Estimated
Fri 04:02:00 PM 29.3455 121.6198 185° South  Level Estimated
Fri 04:03:00 PM 29.2332 121.6092 185° South  Level Estimated
Fri 04:04:00 PM 29.1208 121.5986 185° South  Level Estimated
Fri 04:05:00 PM 29.0085 121.5881 185° South  Level Estimated
Fri 04:06:00 PM 28.8961 121.5776 185° South  Level Estimated
Fri 04:07:00 PM 28.7838 121.5671 185° South  Level Estimated
Fri 04:08:00 PM 28.6715 121.5566 185° South  Level Estimated
Fri 04:09:00 PM 28.5591 121.5462 185° South  Level Estimated
Fri 04:10:00 PM 28.4468 121.5357 185° South  Level Estimated
Fri 04:11:00 PM 28.3344 121.5253 185° South  Level Estimated
Fri 04:12:00 PM 28.2221 121.5150 185° South  Level Estimated
Fri 04:13:00 PM 28.1097 121.5046 185° South  Level Estimated
Fri 04:14:00 PM 27.9974 121.4943 185° South  Level Estimated
Fri 04:15:00 PM 27.8850 121.4839 185° South  Level Estimated
Fri 04:16:00 PM 27.7727 121.4737 185° South  Level Estimated
Fri 04:17:00 PM 27.6603 121.4634 185° South  Level Estimated
Fri 04:18:00 PM 27.5480 121.4531 185° South  Level Estimated
Fri 04:19:00 PM 27.4356 121.4429 185° South  Level Estimated
Fri 04:20:00 PM 27.3233 121.4327 185° South  Level Estimated
Fri 04:21:00 PM 27.2109 121.4225 185° South  Level Estimated
Fri 04:22:00 PM 27.0986 121.4123 185° South  Level Estimated
Fri 04:23:00 PM 26.9862 121.4022 185° South  Level Estimated
Fri 04:24:00 PM 26.8739 121.3921 185° South  Level Estimated
Fri 04:26:40 PM 26.5743 121.3652 185° South  Level Estimated
Fri 04:28:00 PM 26.4245 121.3518 185° South  Level Estimated
Fri 04:29:00 PM 26.3121 121.3417 185° South  Level Estimated
Fri 04:30:00 PM 26.1998 121.3317 185° South  Level Estimated
Fri 04:31:00 PM 26.0874 121.3217 185° South  Level Estimated
Fri 04:32:00 PM 25.9750 121.3118 185° South  Level Estimated
Fri 04:33:00 PM 25.8627 121.3018 185° South  Level Estimated
Fri 04:34:00 PM 25.7503 121.2919 185° South  Level Estimated
Fri 04:35:00 PM 25.6380 121.2820 185° South  Level Estimated
Fri 04:36:00 PM 25.5256 121.2721 185° South  Level Estimated
Fri 04:37:00 PM 25.4132 121.2622 185° South  Level Estimated
Fri 04:38:00 PM 25.3009 121.2523 185° South  Level Estimated
Fri 04:39:00 PM 25.1885 121.2425 185° South  Level Estimated
Fri 04:40:00 PM 25.0777 121.2328 185° South  Level Estimated
Fri 04:41:00 PM 25.0777 121.2328 North  Level Estimated
Fri 04:42:00 PM 25.0777 121.2328 North  Level Estimated
Fri 04:43:00 PM 25.0777 121.2328 North  Level Estimated
Fri 04:44:00 PM 25.0777 121.2328 North  Level Estimated
Fri 04:45:00 PM 25.0777 121.2328 North  Level Estimated
Fri 04:46:00 PM 25.0777 121.2328 North  Level Estimated
Fri 04:47:00 PM 25.0777 121.2328 North  Level Estimated
Fri 04:48:00 PM 25.0777 121.2328 North  Level Estimated
Fri 04:49:00 PM 25.0777 121.2328 North  Level Estimated
Fri 04:50:00 PM 25.0777 121.2328 North  Level Estimated
Fri 04:51:00 PM 25.0777 121.2328 North  Level Estimated
Fri 04:52:00 PM 25.0777 121.2328 North  Level Estimated
Fri 04:53:00 PM 25.0777 121.2328 North  Level Estimated
Fri 04:54:00 PM 25.0777 121.2328 North  Level Estimated
Fri 04:55:00 PM 25.0777 121.2328 North  Level Estimated
Fri 04:56:00 PM 25.0777 121.2328 North  Level Estimated

Login

Don't have an account? Register now (free) for customized features, flight alerts, and more!